windsock image

Welcome to Bigfield Strip.

anemometer image
     

 Help for dials.  
 
Local Met:

Wind:   
10 Min average:  
205 ° / 8.1 kts (7.0)
202° / 8.1

Temperature:  
15.7°C C
Dew Point:  
14.4°C C
QNH:  
Trend:  
1016.1 mb mb
+0.0mb/hr
BigField Strip. This image updates approximately every minute, it can have a two minute delay.  
 

Humidity:  
92 %
Sunrise:   06:56z
Sunset:   16:37z
Updated:  
  UTC
 
   More met info, trends, radar, history etc. available here   

LUTON Metar   EGGW 310920Z 16008KT 3600 BR FEW003 14/14 Q1017
 
  TAF   2014/10/31 06:15 TAF TAF EGGW 310453Z 3106/0106 17004KT 2500 BR BKN003 TEMPO 3106/3108 5000 SCT005 BECMG 3108/3111 9999 NSW FEW009 BECMG 3111/3114 17014KT TEMPO 3111/3118 7000 BECMG 3118/3121 6000 PROB30 TEMPO 3121/0104 3500 BR TEMPO 0104/0106 3500 -RA BR BKN006
 
BENSON Metar   EGUB 310850Z 13013KT 9999 FEW007 BKN250 16/13 Q1016 BLU NOSIG
 
  TAF   2014/10/31 09:03 TAF EGUB 310735Z 3109/3118 16014KT 7000 BR FEW020 BECMG 3109/3111 9000 HZ TEMPO 3110/3118 16015G25KT
 
Big Field view 1 icon   Big Field view 2 icon   Big Field view 3 icon   Chart AL3a in PDF icon   Chart AL3a in Word icon

WARNING:
This information is provided by the Airstrip unofficial weather station, DO NOT depend on the data provided here for any purpose.
This page is updated for latest Metars & TAF's every 5 minutes. Refresh the browser to check for the lastest.
Page designed for a minimum browser size of 1024x768.
© Copyright 2014 BigField Strip. This page auto generated 09:41 UTC - 31/10/2014   Contact Us
Valid HTML 4.01 Transitional     Windows uptime: 2 Days 15 Hours 4 Minutes 33 Seconds    WD started: 18:42 28/10/14    Free memory: 1527MB     Valid CSS!